createdAt,value
2018-04-25T00:00:23.358Z,95.10
2018-04-25T00:02:51.487Z,95.00
2018-04-25T00:05:19.702Z,95.10
2018-04-25T00:07:47.833Z,95.20
2018-04-25T00:10:15.983Z,95.00
2018-04-25T00:12:44.596Z,94.90
2018-04-25T00:15:12.744Z,94.40
2018-04-25T00:17:41.627Z,94.80
2018-04-25T00:20:09.771Z,94.80
2018-04-25T00:22:37.890Z,95.20
2018-04-25T00:25:08.021Z,94.70
2018-04-25T00:27:36.167Z,94.70
2018-04-25T00:30:04.317Z,94.90
2018-04-25T00:32:32.458Z,94.80
2018-04-25T00:35:00.609Z,94.90
2018-04-25T00:37:28.741Z,95.20
2018-04-25T00:39:56.883Z,94.80
2018-04-25T00:42:25.008Z,95.10
2018-04-25T00:44:53.919Z,95.40
2018-04-25T00:47:22.066Z,95.00
2018-04-25T00:49:50.220Z,95.10
2018-04-25T00:52:18.355Z,95.30
2018-04-25T00:54:46.498Z,95.20
2018-04-25T00:57:15.825Z,95.00
2018-04-25T00:59:43.995Z,95.00
2018-04-25T01:02:12.432Z,95.20
2018-04-25T01:04:41.711Z,94.40
2018-04-25T01:07:09.836Z,94.70
2018-04-25T01:09:39.459Z,94.80
2018-04-25T01:12:07.591Z,94.90
2018-04-25T01:14:35.739Z,95.00
2018-04-25T01:17:03.886Z,94.90
2018-04-25T01:19:32.034Z,95.00
2018-04-25T01:22:00.924Z,95.10
2018-04-25T01:24:30.348Z,95.00
2018-04-25T01:27:01.220Z,94.90
2018-04-25T01:29:29.404Z,94.80
2018-04-25T01:31:58.376Z,94.90
2018-04-25T01:34:26.519Z,95.20
2018-04-25T01:37:05.843Z,95.20
2018-04-25T01:39:41.336Z,95.10
2018-04-25T01:42:21.195Z,95.10
2018-04-25T01:44:53.831Z,95.70
2018-04-25T01:47:27.618Z,95.70
2018-04-25T01:50:21.127Z,95.40
2018-04-25T01:53:02.123Z,95.40
2018-04-25T01:55:41.975Z,95.30
2018-04-25T01:58:22.679Z,95.40
2018-04-25T02:01:02.683Z,95.20
2018-04-25T02:03:42.647Z,95.50
2018-04-25T02:06:10.799Z,95.70
2018-04-25T02:08:38.922Z,95.90
2018-04-25T02:11:07.835Z,95.60
2018-04-25T02:13:35.972Z,95.60
2018-04-25T02:16:04.134Z,95.60
2018-04-25T02:18:35.198Z,95.40
2018-04-25T02:21:04.099Z,95.60
2018-04-25T02:23:32.984Z,95.50
2018-04-25T02:26:01.903Z,95.20
2018-04-25T02:28:30.031Z,95.20
2018-04-25T02:30:58.182Z,95.10
2018-04-25T02:33:26.303Z,94.80
2018-04-25T02:35:56.440Z,94.80
2018-04-25T02:38:28.293Z,94.80
2018-04-25T02:40:56.447Z,94.70
2018-04-25T02:43:25.340Z,95.00
2018-04-25T02:45:54.254Z,94.70
2018-04-25T02:48:22.379Z,94.70
2018-04-25T02:50:50.990Z,94.50
2018-04-25T02:53:19.900Z,94.10
2018-04-25T02:55:48.079Z,94.10
2018-04-25T02:58:16.203Z,94.10
2018-04-25T03:00:44.348Z,94.50
2018-04-25T03:03:14.324Z,94.40
2018-04-25T03:05:43.244Z,94.20
2018-04-25T03:08:17.125Z,94.10
2018-04-25T03:10:47.899Z,94.00
2018-04-25T03:13:16.519Z,94.00
2018-04-25T03:15:44.675Z,94.20
2018-04-25T03:18:12.805Z,94.10
2018-04-25T03:20:42.425Z,94.10
2018-04-25T03:23:10.564Z,94.10
2018-04-25T03:25:39.457Z,93.80
2018-04-25T03:28:08.374Z,93.90
2018-04-25T03:30:36.490Z,93.90
2018-04-25T03:33:04.646Z,93.80
2018-04-25T03:35:32.793Z,93.60
2018-04-25T03:38:00.948Z,93.60
2018-04-25T03:40:29.841Z,93.90
2018-04-25T03:42:58.760Z,93.70
2018-04-25T03:45:26.875Z,93.60
2018-04-25T03:47:55.027Z,93.60
2018-04-25T03:50:23.159Z,93.40
2018-04-25T03:52:51.316Z,93.50
2018-04-25T03:58:20.619Z,92.90
2018-04-25T04:00:48.748Z,93.20
2018-04-25T04:03:19.496Z,93.40
2018-04-25T04:05:47.622Z,93.40
2018-04-25T04:08:15.779Z,93.50
2018-04-25T04:10:44.698Z,93.50
2018-04-25T04:13:13.612Z,93.00
2018-04-25T04:15:42.254Z,93.00
2018-04-25T04:18:10.404Z,93.50
2018-04-25T04:20:38.530Z,94.00
2018-04-25T04:23:07.039Z,94.50
2018-04-25T04:25:35.168Z,94.70
2018-04-25T04:28:03.463Z,94.90
2018-04-25T04:33:39.949Z,94.80
2018-04-25T04:36:10.607Z,95.10
2018-04-25T04:38:38.742Z,95.50
2018-04-25T04:41:06.880Z,95.40
2018-04-25T04:43:34.991Z,95.30
2018-04-25T04:46:03.189Z,94.90
2018-04-25T04:48:32.402Z,94.90
2018-04-25T04:51:00.525Z,95.30
2018-04-25T04:53:28.860Z,95.30
2018-04-25T04:55:56.983Z,95.10
2018-04-25T04:58:25.120Z,94.50
2018-04-25T05:00:54.644Z,94.80
2018-04-25T05:03:23.673Z,94.50
2018-04-25T05:05:54.269Z,94.00
2018-04-25T05:08:22.473Z,93.70
2018-04-25T05:10:50.545Z,93.60
2018-04-25T05:13:18.697Z,93.90
2018-04-25T05:15:46.794Z,93.50
2018-04-25T05:18:14.926Z,93.50
2018-04-25T05:20:43.035Z,93.40
2018-04-25T05:23:11.162Z,93.80
2018-04-25T05:25:39.265Z,93.20
2018-04-25T05:28:07.410Z,93.00
2018-04-25T05:30:36.273Z,93.30
2018-04-25T05:33:04.457Z,93.30
2018-04-25T05:35:32.556Z,92.90
2018-04-25T05:38:00.686Z,92.70
2018-04-25T05:40:29.705Z,92.80
2018-04-25T05:42:57.880Z,93.20
2018-04-25T05:45:26.910Z,92.60
2018-04-25T05:47:55.038Z,92.60
2018-04-25T05:50:23.478Z,92.70
2018-04-25T05:52:51.622Z,93.00
2018-04-25T05:55:19.725Z,92.70
2018-04-25T05:57:47.878Z,92.70
2018-04-25T06:00:15.995Z,92.40
2018-04-25T06:02:45.716Z,91.80
2018-04-25T06:05:16.308Z,91.80
2018-04-25T06:07:44.442Z,91.60
2018-04-25T06:10:12.556Z,92.00
2018-04-25T06:12:40.700Z,91.70
2018-04-25T06:15:08.812Z,90.90
2018-04-25T06:17:36.952Z,91.90
2018-04-25T06:20:05.064Z,91.60
2018-04-25T06:22:33.963Z,91.30
2018-04-25T06:25:03.356Z,88.20
2018-04-25T06:27:32.251Z,89.90
2018-04-25T06:30:01.144Z,89.80
2018-04-25T20:50:01.735Z,99.90
2018-04-25T20:52:30.928Z,99.90
2018-04-25T20:54:59.021Z,84.50
2018-04-25T20:57:27.150Z,85.10
2018-04-25T20:59:56.020Z,84.40
2018-04-25T21:02:24.200Z,84.40
2018-04-25T21:04:52.248Z,84.50
2018-04-25T21:07:20.389Z,84.40
2018-04-25T21:09:48.492Z,83.90
2018-04-25T21:12:16.618Z,83.90
2018-04-25T21:14:44.725Z,84.20
2018-04-25T21:17:12.866Z,84.10
2018-04-25T21:19:41.816Z,85.30
2018-04-25T21:22:09.953Z,85.60
2018-04-25T21:24:38.082Z,85.60
2018-04-25T21:27:06.950Z,86.60
2018-04-25T21:29:35.074Z,87.20
2018-04-25T21:32:03.996Z,86.40
2018-04-25T21:34:32.627Z,86.00
2018-04-25T21:37:01.450Z,86.50
2018-04-25T21:39:29.578Z,86.50
2018-04-25T21:42:00.824Z,86.60
2018-04-25T21:44:28.943Z,86.60
2018-04-25T21:46:57.042Z,86.20
2018-04-25T21:49:25.165Z,86.20
2018-04-25T21:51:54.020Z,88.30
2018-04-25T21:54:22.137Z,88.30
2018-04-25T21:56:50.245Z,89.80
2018-04-25T21:59:18.366Z,89.20
2018-04-25T22:01:47.225Z,88.90
2018-04-25T22:04:15.357Z,88.90
2018-04-25T22:06:43.464Z,88.50
2018-04-25T22:09:11.590Z,88.90
2018-04-25T22:11:40.449Z,88.90
2018-04-25T22:14:09.872Z,88.90
2018-04-25T22:16:38.737Z,88.80
2018-04-25T22:19:06.866Z,88.70
2018-04-25T22:21:34.976Z,88.70
2018-04-25T22:24:03.291Z,89.40
2018-04-25T22:26:32.160Z,89.50
2018-04-25T22:29:02.022Z,89.50
2018-04-25T22:31:31.578Z,89.80
2018-04-25T22:33:59.708Z,89.80
2018-04-25T22:36:27.794Z,89.30
2018-04-25T22:38:55.909Z,90.20
2018-04-25T22:41:24.009Z,90.50
2018-04-25T22:43:52.884Z,90.50
2018-04-25T22:46:21.756Z,90.50
2018-04-25T22:48:50.671Z,90.40
2018-04-25T22:51:18.747Z,90.60
2018-04-25T22:53:47.632Z,90.70
2018-04-25T22:56:16.497Z,90.50
2018-04-25T22:58:44.615Z,90.50
2018-04-25T23:01:12.716Z,90.40
2018-04-25T23:03:40.841Z,91.10
2018-04-25T23:06:10.447Z,91.50
2018-04-25T23:08:39.333Z,92.00
2018-04-25T23:11:08.242Z,92.10
2018-04-25T23:13:37.123Z,90.80
2018-04-25T23:16:05.993Z,90.00
2018-04-25T23:18:34.117Z,90.00
2018-04-25T23:21:04.099Z,90.30
2018-04-25T23:23:32.237Z,90.40
2018-04-25T23:26:00.333Z,90.60
2018-04-25T23:28:28.469Z,90.70
2018-04-25T23:30:57.173Z,90.70
2018-04-25T23:33:25.296Z,90.30
2018-04-25T23:35:54.237Z,90.10
2018-04-25T23:38:22.357Z,89.00
2018-04-25T23:40:50.469Z,88.40
2018-04-25T23:43:18.601Z,87.70
2018-04-25T23:45:46.785Z,87.50
2018-04-25T23:48:14.860Z,87.20
2018-04-25T23:50:42.970Z,87.00
2018-04-25T23:53:11.093Z,86.70
2018-04-25T23:55:41.177Z,86.90
2018-04-25T23:58:09.807Z,86.80
